sensor_id;sensor_type;location;lat;lon;timestamp;temperature;humidity
31731;DHT22;18310;55.586;12.286;2022-11-20T00:02:30;5.00;64.50
31731;DHT22;18310;55.586;12.286;2022-11-20T00:05:33;4.90;64.70
31731;DHT22;18310;55.586;12.286;2022-11-20T00:08:37;4.90;64.90
31731;DHT22;18310;55.586;12.286;2022-11-20T00:11:42;4.90;65.10
31731;DHT22;18310;55.586;12.286;2022-11-20T00:14:46;5.50;65.50
31731;DHT22;18310;55.586;12.286;2022-11-20T00:17:50;4.80;65.20
31731;DHT22;18310;55.586;12.286;2022-11-20T00:20:59;4.80;65.40
31731;DHT22;18310;55.586;12.286;2022-11-20T00:24:04;4.70;65.50
31731;DHT22;18310;55.586;12.286;2022-11-20T00:27:09;4.70;65.40
31731;DHT22;18310;55.586;12.286;2022-11-20T00:30:13;4.80;65.80
31731;DHT22;18310;55.586;12.286;2022-11-20T00:33:16;5.60;66.20
31731;DHT22;18310;55.586;12.286;2022-11-20T00:36:21;4.60;65.90
31731;DHT22;18310;55.586;12.286;2022-11-20T00:39:28;4.70;66.20
31731;DHT22;18310;55.586;12.286;2022-11-20T00:42:32;4.60;66.20
31731;DHT22;18310;55.586;12.286;2022-11-20T00:45:36;4.60;66.40
31731;DHT22;18310;55.586;12.286;2022-11-20T00:48:39;4.60;66.40
31731;DHT22;18310;55.586;12.286;2022-11-20T00:51:43;4.60;66.60
31731;DHT22;18310;55.586;12.286;2022-11-20T00:54:47;4.40;67.60
31731;DHT22;18310;55.586;12.286;2022-11-20T00:57:51;4.70;66.60
31731;DHT22;18310;55.586;12.286;2022-11-20T01:00:59;4.60;66.40
31731;DHT22;18310;55.586;12.286;2022-11-20T01:04:03;4.60;66.60
31731;DHT22;18310;55.586;12.286;2022-11-20T01:07:07;4.60;66.40
31731;DHT22;18310;55.586;12.286;2022-11-20T01:10:11;4.60;66.30
31731;DHT22;18310;55.586;12.286;2022-11-20T01:13:16;4.60;66.30
31731;DHT22;18310;55.586;12.286;2022-11-20T01:16:38;4.60;66.10
31731;DHT22;18310;55.586;12.286;2022-11-20T01:19:43;4.60;66.00
31731;DHT22;18310;55.586;12.286;2022-11-20T01:22:47;4.60;66.00
31731;DHT22;18310;55.586;12.286;2022-11-20T01:25:51;4.60;66.00
31731;DHT22;18310;55.586;12.286;2022-11-20T01:28:57;4.60;66.00
31731;DHT22;18310;55.586;12.286;2022-11-20T01:32:01;4.60;66.10
31731;DHT22;18310;55.586;12.286;2022-11-20T01:35:05;4.60;66.10
31731;DHT22;18310;55.586;12.286;2022-11-20T01:38:11;4.60;66.10
31731;DHT22;18310;55.586;12.286;2022-11-20T01:41:15;4.60;66.20
31731;DHT22;18310;55.586;12.286;2022-11-20T01:44:51;4.60;66.60
31731;DHT22;18310;55.586;12.286;2022-11-20T01:47:57;4.60;66.10
31731;DHT22;18310;55.586;12.286;2022-11-20T01:51:01;4.60;66.40
31731;DHT22;18310;55.586;12.286;2022-11-20T01:54:09;5.30;66.10
31731;DHT22;18310;55.586;12.286;2022-11-20T01:57:16;5.40;66.30
31731;DHT22;18310;55.586;12.286;2022-11-20T02:00:22;4.60;65.80
31731;DHT22;18310;55.586;12.286;2022-11-20T02:03:26;4.60;65.80
31731;DHT22;18310;55.586;12.286;2022-11-20T02:06:35;5.70;66.40
31731;DHT22;18310;55.586;12.286;2022-11-20T02:09:43;4.60;65.80
31731;DHT22;18310;55.586;12.286;2022-11-20T02:12:47;4.70;65.90
31731;DHT22;18310;55.586;12.286;2022-11-20T02:16:12;4.60;65.60
31731;DHT22;18310;55.586;12.286;2022-11-20T02:19:26;4.60;65.50
31731;DHT22;18310;55.586;12.286;2022-11-20T02:22:33;4.90;65.60
31731;DHT22;18310;55.586;12.286;2022-11-20T02:25:43;4.60;65.30
31731;DHT22;18310;55.586;12.286;2022-11-20T02:28:50;4.60;65.30
31731;DHT22;18310;55.586;12.286;2022-11-20T02:31:55;4.60;65.10
31731;DHT22;18310;55.586;12.286;2022-11-20T02:35:06;5.10;65.30
31731;DHT22;18310;55.586;12.286;2022-11-20T02:38:11;4.50;65.00
31731;DHT22;18310;55.586;12.286;2022-11-20T02:41:18;4.40;65.00
31731;DHT22;18310;55.586;12.286;2022-11-20T02:44:23;4.30;65.00
31731;DHT22;18310;55.586;12.286;2022-11-20T02:47:26;4.30;65.10
31731;DHT22;18310;55.586;12.286;2022-11-20T02:50:30;4.40;65.10
31731;DHT22;18310;55.586;12.286;2022-11-20T02:53:34;5.50;65.40
31731;DHT22;18310;55.586;12.286;2022-11-20T02:56:39;3.10;64.70
31731;DHT22;18310;55.586;12.286;2022-11-20T02:59:42;4.40;65.10
31731;DHT22;18310;55.586;12.286;2022-11-20T03:02:46;4.10;64.90
31731;DHT22;18310;55.586;12.286;2022-11-20T03:05:49;4.10;65.00
31731;DHT22;18310;55.586;12.286;2022-11-20T03:08:53;4.10;65.00
31731;DHT22;18310;55.586;12.286;2022-11-20T03:11:58;4.00;65.10
31731;DHT22;18310;55.586;12.286;2022-11-20T03:15:02;3.60;64.90
31731;DHT22;18310;55.586;12.286;2022-11-20T03:18:06;3.90;65.60
31731;DHT22;18310;55.586;12.286;2022-11-20T03:21:12;3.90;65.10
31731;DHT22;18310;55.586;12.286;2022-11-20T03:24:16;3.90;65.20
31731;DHT22;18310;55.586;12.286;2022-11-20T03:27:21;3.90;65.20
31731;DHT22;18310;55.586;12.286;2022-11-20T03:30:25;3.80;65.20
31731;DHT22;18310;55.586;12.286;2022-11-20T03:33:32;4.10;65.30
31731;DHT22;18310;55.586;12.286;2022-11-20T03:36:37;3.90;65.20
31731;DHT22;18310;55.586;12.286;2022-11-20T03:39:42;3.80;65.30
31731;DHT22;18310;55.586;12.286;2022-11-20T03:42:48;3.90;65.40
31731;DHT22;18310;55.586;12.286;2022-11-20T03:45:51;3.90;65.30
31731;DHT22;18310;55.586;12.286;2022-11-20T03:48:56;3.90;65.20
31731;DHT22;18310;55.586;12.286;2022-11-20T03:51:59;3.90;65.20
31731;DHT22;18310;55.586;12.286;2022-11-20T03:55:04;3.80;65.10
31731;DHT22;18310;55.586;12.286;2022-11-20T03:58:10;3.90;65.20
31731;DHT22;18310;55.586;12.286;2022-11-20T04:01:16;3.80;65.00
31731;DHT22;18310;55.586;12.286;2022-11-20T04:04:21;4.50;65.50
31731;DHT22;18310;55.586;12.286;2022-11-20T04:07:24;3.80;65.00
31731;DHT22;18310;55.586;12.286;2022-11-20T04:10:28;3.80;65.00
31731;DHT22;18310;55.586;12.286;2022-11-20T04:13:33;3.70;64.90
31731;DHT22;18310;55.586;12.286;2022-11-20T04:16:36;3.70;65.00
31731;DHT22;18310;55.586;12.286;2022-11-20T04:19:40;3.70;65.10
31731;DHT22;18310;55.586;12.286;2022-11-20T04:22:43;4.20;65.50
31731;DHT22;18310;55.586;12.286;2022-11-20T04:25:47;3.70;65.40
31731;DHT22;18310;55.586;12.286;2022-11-20T04:28:52;3.70;65.40
31731;DHT22;18310;55.586;12.286;2022-11-20T04:31:55;3.70;65.90
31731;DHT22;18310;55.586;12.286;2022-11-20T04:34:58;3.70;65.50
31731;DHT22;18310;55.586;12.286;2022-11-20T04:38:02;3.70;65.50
31731;DHT22;18310;55.586;12.286;2022-11-20T04:41:06;4.00;65.70
31731;DHT22;18310;55.586;12.286;2022-11-20T04:44:20;3.70;65.70
31731;DHT22;18310;55.586;12.286;2022-11-20T04:47:24;3.70;65.40
31731;DHT22;18310;55.586;12.286;2022-11-20T04:50:27;3.70;65.30
31731;DHT22;18310;55.586;12.286;2022-11-20T04:53:31;3.70;65.30
31731;DHT22;18310;55.586;12.286;2022-11-20T04:56:35;3.60;65.20
31731;DHT22;18310;55.586;12.286;2022-11-20T04:59:40;4.40;65.60
31731;DHT22;18310;55.586;12.286;2022-11-20T05:02:44;3.60;65.20
31731;DHT22;18310;55.586;12.286;2022-11-20T05:05:47;3.50;65.10
31731;DHT22;18310;55.586;12.286;2022-11-20T05:08:50;3.50;65.10
31731;DHT22;18310;55.586;12.286;2022-11-20T05:11:54;3.50;65.10
31731;DHT22;18310;55.586;12.286;2022-11-20T05:14:59;3.40;65.10
31731;DHT22;18310;55.586;12.286;2022-11-20T05:18:02;3.40;65.20
31731;DHT22;18310;55.586;12.286;2022-11-20T05:21:07;3.40;65.10
31731;DHT22;18310;55.586;12.286;2022-11-20T05:24:11;3.40;65.10
31731;DHT22;18310;55.586;12.286;2022-11-20T05:27:15;3.30;65.10
31731;DHT22;18310;55.586;12.286;2022-11-20T05:30:20;3.30;65.10
31731;DHT22;18310;55.586;12.286;2022-11-20T05:33:23;3.00;64.90
31731;DHT22;18310;55.586;12.286;2022-11-20T05:36:27;3.20;65.10
31731;DHT22;18310;55.586;12.286;2022-11-20T05:39:30;3.20;65.10
31731;DHT22;18310;55.586;12.286;2022-11-20T05:42:33;3.20;65.10
31731;DHT22;18310;55.586;12.286;2022-11-20T05:45:39;3.10;65.20
31731;DHT22;18310;55.586;12.286;2022-11-20T05:48:43;3.70;65.50
31731;DHT22;18310;55.586;12.286;2022-11-20T05:51:48;3.10;65.20
31731;DHT22;18310;55.586;12.286;2022-11-20T05:54:52;3.10;65.20
31731;DHT22;18310;55.586;12.286;2022-11-20T05:57:55;3.10;65.50
31731;DHT22;18310;55.586;12.286;2022-11-20T06:01:06;3.00;65.40
31731;DHT22;18310;55.586;12.286;2022-11-20T06:04:10;3.00;65.60
31731;DHT22;18310;55.586;12.286;2022-11-20T06:07:14;3.00;65.50
31731;DHT22;18310;55.586;12.286;2022-11-20T06:10:17;3.00;65.50
31731;DHT22;18310;55.586;12.286;2022-11-20T06:13:21;3.00;65.60
31731;DHT22;18310;55.586;12.286;2022-11-20T06:16:26;3.00;65.60
31731;DHT22;18310;55.586;12.286;2022-11-20T06:19:29;3.00;65.70
31731;DHT22;18310;55.586;12.286;2022-11-20T06:22:33;3.10;65.60
31731;DHT22;18310;55.586;12.286;2022-11-20T06:25:37;3.10;65.70
31731;DHT22;18310;55.586;12.286;2022-11-20T06:28:41;3.00;65.50
31731;DHT22;18310;55.586;12.286;2022-11-20T06:31:46;3.00;65.30
31731;DHT22;18310;55.586;12.286;2022-11-20T06:34:50;2.10;64.80
31731;DHT22;18310;55.586;12.286;2022-11-20T06:37:55;3.10;65.30
31731;DHT22;18310;55.586;12.286;2022-11-20T06:40:59;4.20;66.00
31731;DHT22;18310;55.586;12.286;2022-11-20T06:44:04;4.00;65.80
31731;DHT22;18310;55.586;12.286;2022-11-20T06:47:09;3.00;65.30
31731;DHT22;18310;55.586;12.286;2022-11-20T06:50:13;4.30;66.10
31731;DHT22;18310;55.586;12.286;2022-11-20T06:53:17;3.00;65.30
31731;DHT22;18310;55.586;12.286;2022-11-20T06:56:21;2.20;64.90
31731;DHT22;18310;55.586;12.286;2022-11-20T06:59:24;2.90;65.00
31731;DHT22;18310;55.586;12.286;2022-11-20T07:02:30;2.90;65.10
31731;DHT22;18310;55.586;12.286;2022-11-20T07:05:34;2.90;65.30
31731;DHT22;18310;55.586;12.286;2022-11-20T07:08:40;2.80;65.40
31731;DHT22;18310;55.586;12.286;2022-11-20T07:11:43;2.70;65.40
31731;DHT22;18310;55.586;12.286;2022-11-20T07:14:46;2.80;65.50
31731;DHT22;18310;55.586;12.286;2022-11-20T07:17:52;2.70;65.60
31731;DHT22;18310;55.586;12.286;2022-11-20T07:20:55;2.70;65.70
31731;DHT22;18310;55.586;12.286;2022-11-20T07:24:02;2.10;65.40
31731;DHT22;18310;55.586;12.286;2022-11-20T07:27:08;2.70;65.70
31731;DHT22;18310;55.586;12.286;2022-11-20T07:30:13;2.00;65.50
31731;DHT22;18310;55.586;12.286;2022-11-20T07:33:18;2.70;65.90
31731;DHT22;18310;55.586;12.286;2022-11-20T07:36:22;2.70;66.00
31731;DHT22;18310;55.586;12.286;2022-11-20T07:39:25;2.70;66.20
31731;DHT22;18310;55.586;12.286;2022-11-20T07:42:29;2.70;66.30
31731;DHT22;18310;55.586;12.286;2022-11-20T07:45:32;2.80;66.30
31731;DHT22;18310;55.586;12.286;2022-11-20T07:48:38;2.80;66.40
31731;DHT22;18310;55.586;12.286;2022-11-20T07:51:41;2.60;66.50
31731;DHT22;18310;55.586;12.286;2022-11-20T07:54:45;2.90;66.60
31731;DHT22;18310;55.586;12.286;2022-11-20T07:57:54;3.00;66.80
31731;DHT22;18310;55.586;12.286;2022-11-20T08:01:03;2.90;66.80
31731;DHT22;18310;55.586;12.286;2022-11-20T08:04:09;4.20;67.40
31731;DHT22;18310;55.586;12.286;2022-11-20T08:07:13;2.90;66.50
31731;DHT22;18310;55.586;12.286;2022-11-20T08:10:24;2.90;66.50
31731;DHT22;18310;55.586;12.286;2022-11-20T08:13:29;3.20;66.80
31731;DHT22;18310;55.586;12.286;2022-11-20T08:16:51;3.30;66.70
31731;DHT22;18310;55.586;12.286;2022-11-20T08:19:57;3.30;66.30
31731;DHT22;18310;55.586;12.286;2022-11-20T08:23:07;3.40;66.60
31731;DHT22;18310;55.586;12.286;2022-11-20T08:26:11;3.50;66.50
31731;DHT22;18310;55.586;12.286;2022-11-20T08:29:14;3.50;66.50
31731;DHT22;18310;55.586;12.286;2022-11-20T08:32:18;2.40;65.90
31731;DHT22;18310;55.586;12.286;2022-11-20T08:35:23;3.70;66.50
31731;DHT22;18310;55.586;12.286;2022-11-20T08:38:26;3.70;66.40
31731;DHT22;18310;55.586;12.286;2022-11-20T08:41:30;3.80;66.20
31731;DHT22;18310;55.586;12.286;2022-11-20T08:44:35;3.90;66.60
31731;DHT22;18310;55.586;12.286;2022-11-20T08:47:38;3.70;65.90
31731;DHT22;18310;55.586;12.286;2022-11-20T08:50:44;4.00;66.00
31731;DHT22;18310;55.586;12.286;2022-11-20T08:53:47;4.10;66.00
31731;DHT22;18310;55.586;12.286;2022-11-20T08:56:51;4.20;66.40
31731;DHT22;18310;55.586;12.286;2022-11-20T08:59:54;4.20;65.40
31731;DHT22;18310;55.586;12.286;2022-11-20T09:03:07;4.10;65.10
31731;DHT22;18310;55.586;12.286;2022-11-20T09:06:14;4.20;65.00
31731;DHT22;18310;55.586;12.286;2022-11-20T09:09:18;4.20;64.80
31731;DHT22;18310;55.586;12.286;2022-11-20T09:12:23;4.30;64.80
31731;DHT22;18310;55.586;12.286;2022-11-20T09:15:26;4.30;64.60
31731;DHT22;18310;55.586;12.286;2022-11-20T09:18:30;4.30;64.60
31731;DHT22;18310;55.586;12.286;2022-11-20T09:21:36;4.30;64.60
31731;DHT22;18310;55.586;12.286;2022-11-20T09:24:39;4.30;64.50
31731;DHT22;18310;55.586;12.286;2022-11-20T09:27:44;4.30;64.40
31731;DHT22;18310;55.586;12.286;2022-11-20T09:30:48;4.40;64.50
31731;DHT22;18310;55.586;12.286;2022-11-20T09:33:52;5.00;64.70
31731;DHT22;18310;55.586;12.286;2022-11-20T09:36:58;4.40;64.20
31731;DHT22;18310;55.586;12.286;2022-11-20T09:40:19;4.40;64.20
31731;DHT22;18310;55.586;12.286;2022-11-20T09:43:33;4.40;64.00
31731;DHT22;18310;55.586;12.286;2022-11-20T09:46:54;4.40;64.10
31731;DHT22;18310;55.586;12.286;2022-11-20T09:50:16;4.40;64.00
31731;DHT22;18310;55.586;12.286;2022-11-20T09:53:37;4.40;63.80
31731;DHT22;18310;55.586;12.286;2022-11-20T09:56:53;4.50;63.80
31731;DHT22;18310;55.586;12.286;2022-11-20T10:00:01;4.50;63.80
31731;DHT22;18310;55.586;12.286;2022-11-20T10:03:14;4.40;63.80
31731;DHT22;18310;55.586;12.286;2022-11-20T10:06:30;4.50;63.80
31731;DHT22;18310;55.586;12.286;2022-11-20T10:09:38;4.90;64.00
31731;DHT22;18310;55.586;12.286;2022-11-20T10:12:58;4.50;63.90
31731;DHT22;18310;55.586;12.286;2022-11-20T10:16:23;4.50;63.80
31731;DHT22;18310;55.586;12.286;2022-11-20T10:19:50;4.60;63.70
31731;DHT22;18310;55.586;12.286;2022-11-20T10:23:17;3.60;63.00
31731;DHT22;18310;55.586;12.286;2022-11-20T10:26:37;4.60;63.40
31731;DHT22;18310;55.586;12.286;2022-11-20T10:30:00;4.70;63.40
31731;DHT22;18310;55.586;12.286;2022-11-20T10:33:13;4.60;63.20
31731;DHT22;18310;55.586;12.286;2022-11-20T10:36:23;4.70;63.20
31731;DHT22;18310;55.586;12.286;2022-11-20T10:39:35;3.60;62.50
31731;DHT22;18310;55.586;12.286;2022-11-20T10:42:44;4.60;63.00
31731;DHT22;18310;55.586;12.286;2022-11-20T10:45:56;4.60;62.90
31731;DHT22;18310;55.586;12.286;2022-11-20T10:49:09;4.60;63.00
31731;DHT22;18310;55.586;12.286;2022-11-20T10:52:21;4.60;62.90
31731;DHT22;18310;55.586;12.286;2022-11-20T10:55:39;4.70;63.00
31731;DHT22;18310;55.586;12.286;2022-11-20T10:59:05;4.70;62.90
31731;DHT22;18310;55.586;12.286;2022-11-20T11:02:24;4.40;62.30
31731;DHT22;18310;55.586;12.286;2022-11-20T11:05:38;4.70;62.60
31731;DHT22;18310;55.586;12.286;2022-11-20T11:08:47;4.80;62.40
31731;DHT22;18310;55.586;12.286;2022-11-20T11:11:54;5.30;62.70
31731;DHT22;18310;55.586;12.286;2022-11-20T11:14:58;4.90;62.40
31731;DHT22;18310;55.586;12.286;2022-11-20T11:18:02;4.90;62.40
31731;DHT22;18310;55.586;12.286;2022-11-20T11:21:05;4.90;62.40
31731;DHT22;18310;55.586;12.286;2022-11-20T11:24:20;5.50;62.40
31731;DHT22;18310;55.586;12.286;2022-11-20T11:27:46;5.00;61.50
31731;DHT22;18310;55.586;12.286;2022-11-20T11:30:51;5.00;61.60
31731;DHT22;18310;55.586;12.286;2022-11-20T11:34:04;5.00;61.40
31731;DHT22;18310;55.586;12.286;2022-11-20T11:37:14;5.00;61.00
31731;DHT22;18310;55.586;12.286;2022-11-20T11:40:22;5.00;61.10
31731;DHT22;18310;55.586;12.286;2022-11-20T11:43:31;5.10;61.20
31731;DHT22;18310;55.586;12.286;2022-11-20T11:46:56;5.10;61.10
31731;DHT22;18310;55.586;12.286;2022-11-20T11:53:22;6.30;61.80
31731;DHT22;18310;55.586;12.286;2022-11-20T11:56:28;5.20;61.20
31731;DHT22;18310;55.586;12.286;2022-11-20T11:59:41;5.30;61.00
31731;DHT22;18310;55.586;12.286;2022-11-20T12:03:00;5.30;60.70
31731;DHT22;18310;55.586;12.286;2022-11-20T12:06:14;5.30;60.50
31731;DHT22;18310;55.586;12.286;2022-11-20T12:09:20;5.30;60.60
31731;DHT22;18310;55.586;12.286;2022-11-20T12:12:32;5.20;60.30
31731;DHT22;18310;55.586;12.286;2022-11-20T12:15:44;5.20;60.20
31731;DHT22;18310;55.586;12.286;2022-11-20T12:18:52;5.20;60.10
31731;DHT22;18310;55.586;12.286;2022-11-20T12:22:00;5.20;60.10
31731;DHT22;18310;55.586;12.286;2022-11-20T12:25:11;5.80;60.20
31731;DHT22;18310;55.586;12.286;2022-11-20T12:28:31;5.10;59.80
31731;DHT22;18310;55.586;12.286;2022-11-20T12:32:15;5.80;60.00
31731;DHT22;18310;55.586;12.286;2022-11-20T12:35:48;5.00;59.30
31731;DHT22;18310;55.586;12.286;2022-11-20T12:39:17;5.10;59.20
31731;DHT22;18310;55.586;12.286;2022-11-20T12:42:46;5.10;59.50
31731;DHT22;18310;55.586;12.286;2022-11-20T12:46:21;5.10;59.40
31731;DHT22;18310;55.586;12.286;2022-11-20T12:49:39;5.20;59.40
31731;DHT22;18310;55.586;12.286;2022-11-20T12:52:55;5.10;59.00
31731;DHT22;18310;55.586;12.286;2022-11-20T12:56:10;5.20;59.10
31731;DHT22;18310;55.586;12.286;2022-11-20T12:59:32;5.20;59.00
31731;DHT22;18310;55.586;12.286;2022-11-20T13:06:37;5.00;58.50
31731;DHT22;18310;55.586;12.286;2022-11-20T13:09:47;5.20;59.00
31731;DHT22;18310;55.586;12.286;2022-11-20T13:12:56;5.20;58.80
31731;DHT22;18310;55.586;12.286;2022-11-20T13:16:06;5.20;58.80
31731;DHT22;18310;55.586;12.286;2022-11-20T13:19:16;5.20;58.80
31731;DHT22;18310;55.586;12.286;2022-11-20T13:22:25;5.20;58.80
31731;DHT22;18310;55.586;12.286;2022-11-20T13:25:32;5.20;58.60
31731;DHT22;18310;55.586;12.286;2022-11-20T13:28:38;4.20;57.90
31731;DHT22;18310;55.586;12.286;2022-11-20T13:31:45;5.20;58.50
31731;DHT22;18310;55.586;12.286;2022-11-20T13:34:54;5.20;58.30
31731;DHT22;18310;55.586;12.286;2022-11-20T13:38:07;5.10;58.00
31731;DHT22;18310;55.586;12.286;2022-11-20T13:41:23;5.10;58.00
31731;DHT22;18310;55.586;12.286;2022-11-20T13:44:36;5.10;57.80
31731;DHT22;18310;55.586;12.286;2022-11-20T13:47:48;5.10;58.30
31731;DHT22;18310;55.586;12.286;2022-11-20T13:51:09;5.10;58.30
31731;DHT22;18310;55.586;12.286;2022-11-20T13:54:42;5.10;58.20
31731;DHT22;18310;55.586;12.286;2022-11-20T13:58:22;5.10;57.80
31731;DHT22;18310;55.586;12.286;2022-11-20T14:01:34;6.20;58.30
31731;DHT22;18310;55.586;12.286;2022-11-20T14:04:43;5.10;58.30
31731;DHT22;18310;55.586;12.286;2022-11-20T14:07:51;5.10;58.30
31731;DHT22;18310;55.586;12.286;2022-11-20T14:11:05;4.30;57.80
31731;DHT22;18310;55.586;12.286;2022-11-20T14:14:16;5.10;58.10
31731;DHT22;18310;55.586;12.286;2022-11-20T14:17:29;5.10;58.10
31731;DHT22;18310;55.586;12.286;2022-11-20T14:20:34;5.10;58.30
31731;DHT22;18310;55.586;12.286;2022-11-20T14:23:37;5.10;58.30
31731;DHT22;18310;55.586;12.286;2022-11-20T14:26:42;5.00;58.20
31731;DHT22;18310;55.586;12.286;2022-11-20T14:29:50;5.00;58.20
31731;DHT22;18310;55.586;12.286;2022-11-20T14:32:56;5.00;58.70
31731;DHT22;18310;55.586;12.286;2022-11-20T14:36:15;4.90;58.20
31731;DHT22;18310;55.586;12.286;2022-11-20T14:39:26;4.80;58.10
31731;DHT22;18310;55.586;12.286;2022-11-20T14:42:54;4.80;58.10
31731;DHT22;18310;55.586;12.286;2022-11-20T14:46:04;4.70;58.20
31731;DHT22;18310;55.586;12.286;2022-11-20T14:49:40;4.70;58.20
31731;DHT22;18310;55.586;12.286;2022-11-20T14:53:23;4.70;58.30
31731;DHT22;18310;55.586;12.286;2022-11-20T14:56:30;3.60;57.90
31731;DHT22;18310;55.586;12.286;2022-11-20T14:59:35;4.50;58.60
31731;DHT22;18310;55.586;12.286;2022-11-20T15:02:53;4.40;58.60
31731;DHT22;18310;55.586;12.286;2022-11-20T15:06:04;4.40;59.00
31731;DHT22;18310;55.586;12.286;2022-11-20T15:09:15;4.40;59.10
31731;DHT22;18310;55.586;12.286;2022-11-20T15:12:21;4.30;59.00
31731;DHT22;18310;55.586;12.286;2022-11-20T15:15:35;4.30;59.10
31731;DHT22;18310;55.586;12.286;2022-11-20T15:18:49;4.20;59.60
31731;DHT22;18310;55.586;12.286;2022-11-20T15:21:56;4.20;59.10
31731;DHT22;18310;55.586;12.286;2022-11-20T15:25:13;4.10;59.10
31731;DHT22;18310;55.586;12.286;2022-11-20T15:28:27;4.00;59.20
31731;DHT22;18310;55.586;12.286;2022-11-20T15:31:41;3.90;59.20
31731;DHT22;18310;55.586;12.286;2022-11-20T15:34:50;3.90;59.30
31731;DHT22;18310;55.586;12.286;2022-11-20T15:38:11;3.80;59.40
31731;DHT22;18310;55.586;12.286;2022-11-20T15:41:52;3.70;59.60
31731;DHT22;18310;55.586;12.286;2022-11-20T15:45:00;3.60;59.60
31731;DHT22;18310;55.586;12.286;2022-11-20T15:48:14;3.60;59.80
31731;DHT22;18310;55.586;12.286;2022-11-20T15:51:27;3.50;59.80
31731;DHT22;18310;55.586;12.286;2022-11-20T15:54:36;3.40;59.90
31731;DHT22;18310;55.586;12.286;2022-11-20T15:58:11;3.40;59.90
31731;DHT22;18310;55.586;12.286;2022-11-20T16:02:11;3.30;60.10
31731;DHT22;18310;55.586;12.286;2022-11-20T16:05:40;3.20;60.20
31731;DHT22;18310;55.586;12.286;2022-11-20T16:09:26;3.20;60.30
31731;DHT22;18310;55.586;12.286;2022-11-20T16:12:46;3.20;60.20
31731;DHT22;18310;55.586;12.286;2022-11-20T16:16:38;3.10;60.40
31731;DHT22;18310;55.586;12.286;2022-11-20T16:20:04;3.10;60.30
31731;DHT22;18310;55.586;12.286;2022-11-20T16:23:16;3.00;60.10
31731;DHT22;18310;55.586;12.286;2022-11-20T16:26:28;2.90;60.20
31731;DHT22;18310;55.586;12.286;2022-11-20T16:29:32;2.90;60.40
31731;DHT22;18310;55.586;12.286;2022-11-20T16:32:39;3.40;60.70
31731;DHT22;18310;55.586;12.286;2022-11-20T16:35:46;2.80;60.50
31731;DHT22;18310;55.586;12.286;2022-11-20T16:38:53;2.70;60.50
31731;DHT22;18310;55.586;12.286;2022-11-20T16:42:04;3.10;60.70
31731;DHT22;18310;55.586;12.286;2022-11-20T16:45:14;2.60;60.60
31731;DHT22;18310;55.586;12.286;2022-11-20T16:48:26;2.60;60.60
31731;DHT22;18310;55.586;12.286;2022-11-20T16:51:34;2.60;60.60
31731;DHT22;18310;55.586;12.286;2022-11-20T16:54:42;2.50;60.70
31731;DHT22;18310;55.586;12.286;2022-11-20T16:57:51;2.50;60.80
31731;DHT22;18310;55.586;12.286;2022-11-20T17:00:55;2.50;60.80
31731;DHT22;18310;55.586;12.286;2022-11-20T17:04:05;2.50;60.80
31731;DHT22;18310;55.586;12.286;2022-11-20T17:07:10;2.40;60.80
31731;DHT22;18310;55.586;12.286;2022-11-20T17:10:17;2.40;60.80
31731;DHT22;18310;55.586;12.286;2022-11-20T17:13:38;2.40;60.90
31731;DHT22;18310;55.586;12.286;2022-11-20T17:16:45;2.30;61.00
31731;DHT22;18310;55.586;12.286;2022-11-20T17:19:49;2.30;60.90
31731;DHT22;18310;55.586;12.286;2022-11-20T17:22:52;2.90;61.10
31731;DHT22;18310;55.586;12.286;2022-11-20T17:26:01;2.20;60.80
31731;DHT22;18310;55.586;12.286;2022-11-20T17:29:10;2.20;60.90
31731;DHT22;18310;55.586;12.286;2022-11-20T17:32:15;2.20;61.00
31731;DHT22;18310;55.586;12.286;2022-11-20T17:35:18;1.90;61.00
31731;DHT22;18310;55.586;12.286;2022-11-20T17:38:22;2.10;61.00
31731;DHT22;18310;55.586;12.286;2022-11-20T17:41:27;2.00;61.60
31731;DHT22;18310;55.586;12.286;2022-11-20T17:44:34;2.00;61.20
31731;DHT22;18310;55.586;12.286;2022-11-20T17:47:38;1.90;61.30
31731;DHT22;18310;55.586;12.286;2022-11-20T17:50:43;1.80;61.30
31731;DHT22;18310;55.586;12.286;2022-11-20T17:53:49;1.90;61.50
31731;DHT22;18310;55.586;12.286;2022-11-20T17:56:54;3.20;62.30
31731;DHT22;18310;55.586;12.286;2022-11-20T18:00:31;1.80;61.50
31731;DHT22;18310;55.586;12.286;2022-11-20T18:03:35;1.70;61.40
31731;DHT22;18310;55.586;12.286;2022-11-20T18:06:40;1.70;61.40
31731;DHT22;18310;55.586;12.286;2022-11-20T18:09:44;1.70;61.40
31731;DHT22;18310;55.586;12.286;2022-11-20T18:12:48;1.70;61.40
31731;DHT22;18310;55.586;12.286;2022-11-20T18:16:06;1.60;61.30
31731;DHT22;18310;55.586;12.286;2022-11-20T18:19:12;1.60;61.30
31731;DHT22;18310;55.586;12.286;2022-11-20T18:22:18;1.50;61.10
31731;DHT22;18310;55.586;12.286;2022-11-20T18:25:22;1.50;61.20
31731;DHT22;18310;55.586;12.286;2022-11-20T18:28:25;1.40;61.10
31731;DHT22;18310;55.586;12.286;2022-11-20T18:31:30;1.50;61.30
31731;DHT22;18310;55.586;12.286;2022-11-20T18:34:35;1.30;61.30
31731;DHT22;18310;55.586;12.286;2022-11-20T18:37:38;1.30;61.40
31731;DHT22;18310;55.586;12.286;2022-11-20T18:40:42;1.30;61.60
31731;DHT22;18310;55.586;12.286;2022-11-20T18:43:46;1.70;62.00
31731;DHT22;18310;55.586;12.286;2022-11-20T18:47:13;2.10;62.30
31731;DHT22;18310;55.586;12.286;2022-11-20T18:50:18;1.20;61.90
31731;DHT22;18310;55.586;12.286;2022-11-20T18:53:22;1.20;62.10
31731;DHT22;18310;55.586;12.286;2022-11-20T18:56:26;1.20;62.20
31731;DHT22;18310;55.586;12.286;2022-11-20T18:59:30;1.20;62.20
31731;DHT22;18310;55.586;12.286;2022-11-20T19:02:37;1.10;62.60
31731;DHT22;18310;55.586;12.286;2022-11-20T19:05:44;1.10;62.10
31731;DHT22;18310;55.586;12.286;2022-11-20T19:08:47;1.10;62.10
31731;DHT22;18310;55.586;12.286;2022-11-20T19:11:51;1.10;62.70
31731;DHT22;18310;55.586;12.286;2022-11-20T19:14:55;1.70;62.50
31731;DHT22;18310;55.586;12.286;2022-11-20T19:18:00;1.10;62.30
31731;DHT22;18310;55.586;12.286;2022-11-20T19:21:06;1.10;62.30
31731;DHT22;18310;55.586;12.286;2022-11-20T19:24:11;1.10;62.30
31731;DHT22;18310;55.586;12.286;2022-11-20T19:27:16;1.10;62.30
31731;DHT22;18310;55.586;12.286;2022-11-20T19:30:19;1.20;62.70
31731;DHT22;18310;55.586;12.286;2022-11-20T19:33:28;1.10;62.30
31731;DHT22;18310;55.586;12.286;2022-11-20T19:36:33;1.10;62.20
31731;DHT22;18310;55.586;12.286;2022-11-20T19:39:45;1.20;62.20
31731;DHT22;18310;55.586;12.286;2022-11-20T19:42:48;1.10;62.20
31731;DHT22;18310;55.586;12.286;2022-11-20T19:45:54;1.10;62.10
31731;DHT22;18310;55.586;12.286;2022-11-20T19:48:59;1.10;62.20
31731;DHT22;18310;55.586;12.286;2022-11-20T19:52:02;1.10;62.20
31731;DHT22;18310;55.586;12.286;2022-11-20T19:55:06;1.10;62.10
31731;DHT22;18310;55.586;12.286;2022-11-20T19:58:10;1.00;61.90
31731;DHT22;18310;55.586;12.286;2022-11-20T20:01:15;-0.20;61.10